Time;durP1;ratioP1;P1;durP2;ratioP2;P2;SDS_P1;SDS_P2;PMS_P1;PMS_P2;Temp;Humidity;BMP_temperature;BMP_pressure;BME280_temperature;BME280_humidity;BME280_pressure;Samples;Min_cycle;Max_cycle;Signal;HPM_P1;HPM_P2
2023/05/21 00:01:52;;;;;;;2.03;1.93;;;;;;;;;;5013038;28;20220;-85
2023/05/21 00:04:21;;;;;;;2.13;1.70;;;;;;;;;;5012966;28;20209;-85
2023/05/21 00:06:50;;;;;;;1.20;1.10;;;;;;;;;;5013180;28;20226;-85
2023/05/21 00:09:18;;;;;;;1.77;1.67;;;;;;;;;;5012829;28;20299;-85
2023/05/21 00:11:47;;;;;;;1.33;1.33;;;;;;;;;;5012430;28;20210;-85
2023/05/21 00:14:15;;;;;;;2.30;2.13;;;;;;;;;;5012456;28;20206;-85
2023/05/21 00:16:45;;;;;;;2.13;2.03;;;;;;;;;;5012666;28;20229;-84
2023/05/21 00:19:15;;;;;;;3.10;2.90;;;;;;;;;;5012438;28;20197;-85
2023/05/21 00:21:44;;;;;;;2.00;1.73;;;;;;;;;;5013224;28;20209;-85
2023/05/21 00:24:13;;;;;;;2.13;2.00;;;;;;;;;;5012363;28;20229;-86
2023/05/21 00:26:41;;;;;;;6.53;2.20;;;;;;;;;;5012775;28;20198;-86
2023/05/21 00:29:10;;;;;;;3.17;2.30;;;;;;;;;;5012568;28;20295;-86
2023/05/21 00:31:38;;;;;;;2.63;2.30;;;;;;;;;;5013008;28;20207;-86
2023/05/21 00:34:08;;;;;;;7.10;3.37;;;;;;;;;;5012794;28;20255;-85
2023/05/21 00:36:39;;;;;;;7.57;2.53;;;;;;;;;;5011898;28;20213;-85
2023/05/21 00:39:07;;;;;;;0.97;0.97;;;;;;;;;;5012820;28;20216;-85
2023/05/21 00:41:37;;;;;;;2.20;2.10;;;;;;;;;;5012763;28;20210;-85
2023/05/21 00:44:05;;;;;;;1.97;1.87;;;;;;;;;;5012684;28;20212;-85
2023/05/21 00:46:34;;;;;;;1.97;1.80;;;;;;;;;;5012421;28;20227;-85
2023/05/21 00:49:02;;;;;;;1.70;1.63;;;;;;;;;;5012938;28;20253;-85
2023/05/21 00:51:32;;;;;;;7.87;2.73;;;;;;;;;;5012471;28;20197;-85
2023/05/21 00:54:01;;;;;;;1.10;1.10;;;;;;;;;;5012018;28;20198;-85
2023/05/21 00:56:29;;;;;;;18.50;1.93;;;;;;;;;;5013102;28;20226;-85
2023/05/21 00:58:58;;;;;;;1.97;1.40;;;;;;;;;;5012770;28;20206;-85
2023/05/21 01:01:32;;;;;;;1.63;1.53;;;;;;;;;;5012111;28;20206;-85
2023/05/21 01:04:01;;;;;;;0.90;0.90;;;;;;;;;;5012733;28;20210;-85
2023/05/21 01:06:33;;;;;;;4.17;2.63;;;;;;;;;;5012795;28;20210;-85
2023/05/21 01:09:05;;;;;;;6.70;5.10;;;;;;;;;;5012093;28;20233;-85
2023/05/21 01:11:38;;;;;;;1.67;1.67;;;;;;;;;;5012575;28;20225;-85
2023/05/21 01:14:08;;;;;;;1.70;1.27;;;;;;;;;;5012207;28;20199;-85
2023/05/21 01:16:37;;;;;;;1.97;1.87;;;;;;;;;;5012441;28;20205;-85
2023/05/21 01:19:08;;;;;;;11.00;3.27;;;;;;;;;;5011978;28;20293;-85
2023/05/21 01:21:38;;;;;;;4.10;2.87;;;;;;;;;;5012308;28;20213;-86
2023/05/21 01:24:08;;;;;;;1.93;1.37;;;;;;;;;;5011982;28;20234;-86
2023/05/21 01:26:37;;;;;;;1.90;1.80;;;;;;;;;;5013168;28;20214;-86
2023/05/21 01:29:06;;;;;;;1.60;1.53;;;;;;;;;;5015703;28;20203;-86
2023/05/21 01:31:38;;;;;;;1.27;1.27;;;;;;;;;;5015990;28;20205;-86
2023/05/21 01:34:08;;;;;;;2.07;1.70;;;;;;;;;;5015677;28;20203;-85
2023/05/21 01:36:41;;;;;;;1.00;1.00;;;;;;;;;;5015842;28;20202;-86
2023/05/21 01:39:14;;;;;;;2.90;2.67;;;;;;;;;;5015847;28;20214;-85
2023/05/21 01:41:44;;;;;;;7.83;2.13;;;;;;;;;;5015598;28;20207;-85
2023/05/21 01:44:16;;;;;;;2.47;2.23;;;;;;;;;;5015737;28;20207;-85
2023/05/21 01:46:44;;;;;;;2.07;1.93;;;;;;;;;;5015840;28;20213;-85
2023/05/21 01:49:13;;;;;;;1.93;1.83;;;;;;;;;;5015510;28;20199;-85
2023/05/21 01:51:41;;;;;;;2.43;2.07;;;;;;;;;;5015872;28;20202;-85
2023/05/21 01:54:11;;;;;;;2.13;2.00;;;;;;;;;;5015716;28;20206;-85
2023/05/21 01:56:40;;;;;;;1.43;1.33;;;;;;;;;;5015596;28;20214;-85
2023/05/21 01:59:08;;;;;;;2.00;1.77;;;;;;;;;;5015130;28;20211;-85
2023/05/21 02:01:37;;;;;;;1.83;1.73;;;;;;;;;;5015806;28;20211;-86
2023/05/21 02:04:06;;;;;;;2.93;2.73;;;;;;;;;;5015236;28;20217;-86
2023/05/21 02:06:34;;;;;;;1.83;1.73;;;;;;;;;;5015567;28;20233;-86
2023/05/21 02:09:03;;;;;;;5.10;2.00;;;;;;;;;;5015305;28;20199;-86
2023/05/21 02:11:33;;;;;;;2.97;2.70;;;;;;;;;;5015102;28;20198;-86
2023/05/21 02:14:02;;;;;;;3.87;2.90;;;;;;;;;;5015085;28;20202;-85
2023/05/21 02:16:31;;;;;;;3.10;2.20;;;;;;;;;;5015517;28;20199;-86
2023/05/21 02:19:00;;;;;;;4.90;3.27;;;;;;;;;;5015094;28;20219;-86
2023/05/21 02:21:28;;;;;;;0.90;0.90;;;;;;;;;;5015035;28;20309;-85
2023/05/21 02:23:57;;;;;;;2.93;2.73;;;;;;;;;;5014461;28;20269;-86
2023/05/21 02:26:25;;;;;;;2.03;1.93;;;;;;;;;;5014987;28;20209;-86
2023/05/21 02:28:56;;;;;;;2.03;1.93;;;;;;;;;;5015188;28;20199;-85
2023/05/21 02:31:24;;;;;;;12.53;3.50;;;;;;;;;;5014143;28;20244;-85
2023/05/21 02:33:52;;;;;;;1.73;1.63;;;;;;;;;;5014471;28;20214;-85
2023/05/21 02:36:21;;;;;;;1.87;1.77;;;;;;;;;;5014924;28;20198;-85
2023/05/21 02:38:49;;;;;;;3.67;3.33;;;;;;;;;;5012988;28;20242;-85
2023/05/21 02:41:18;;;;;;;1.80;1.70;;;;;;;;;;5014429;28;20215;-85
2023/05/21 02:43:47;;;;;;;1.40;1.40;;;;;;;;;;5014306;28;20210;-85
2023/05/21 02:46:16;;;;;;;2.70;2.60;;;;;;;;;;5014444;28;20229;-85
2023/05/21 02:48:45;;;;;;;5.33;3.00;;;;;;;;;;5014196;28;20235;-85
2023/05/21 02:51:13;;;;;;;1.67;1.57;;;;;;;;;;5014553;28;20204;-84
2023/05/21 02:53:42;;;;;;;2.87;2.20;;;;;;;;;;5014263;28;20203;-85
2023/05/21 02:56:11;;;;;;;2.33;2.13;;;;;;;;;;5013885;28;20207;-85
2023/05/21 02:58:40;;;;;;;3.13;2.87;;;;;;;;;;5014102;28;20222;-85
2023/05/21 03:01:08;;;;;;;2.63;2.43;;;;;;;;;;5014160;28;20203;-85
2023/05/21 03:03:38;;;;;;;3.43;3.23;;;;;;;;;;5013968;28;20207;-85
2023/05/21 03:06:08;;;;;;;2.83;2.07;;;;;;;;;;5014535;28;20214;-86
2023/05/21 03:08:37;;;;;;;2.57;2.03;;;;;;;;;;5014306;28;20202;-86
2023/05/21 03:11:05;;;;;;;3.90;2.63;;;;;;;;;;5013942;28;20279;-85
2023/05/21 03:13:34;;;;;;;2.97;2.23;;;;;;;;;;5013843;28;20205;-85
2023/05/21 03:16:02;;;;;;;4.03;1.67;;;;;;;;;;5014239;28;20203;-85
2023/05/21 03:18:31;;;;;;;2.07;1.97;;;;;;;;;;5014043;28;20310;-86
2023/05/21 03:21:01;;;;;;;2.23;2.07;;;;;;;;;;5013205;28;20225;-86
2023/05/21 03:23:31;;;;;;;3.73;2.27;;;;;;;;;;5013519;28;20242;-85
2023/05/21 03:26:01;;;;;;;4.87;2.80;;;;;;;;;;5014067;28;20213;-85
2023/05/21 03:28:29;;;;;;;1.60;1.50;;;;;;;;;;5013254;28;20218;-86
2023/05/21 03:30:58;;;;;;;0.90;0.90;;;;;;;;;;5013578;28;20233;-86
2023/05/21 03:33:26;;;;;;;1.73;1.63;;;;;;;;;;5013824;28;20207;-86
2023/05/21 03:35:55;;;;;;;1.87;1.77;;;;;;;;;;5013243;28;20207;-85
2023/05/21 03:38:25;;;;;;;2.67;2.47;;;;;;;;;;5013042;28;20219;-86
2023/05/21 03:40:54;;;;;;;2.20;1.90;;;;;;;;;;5013527;28;20206;-86
2023/05/21 03:43:23;;;;;;;2.90;1.73;;;;;;;;;;5013089;28;20199;-86
2023/05/21 03:45:51;;;;;;;1.60;1.50;;;;;;;;;;5013409;28;20208;-85
2023/05/21 03:48:20;;;;;;;1.70;1.53;;;;;;;;;;5013168;28;20195;-86
2023/05/21 03:50:51;;;;;;;2.70;2.37;;;;;;;;;;5013512;28;20276;-86
2023/05/21 03:53:19;;;;;;;3.57;2.77;;;;;;;;;;5013006;28;20210;-86
2023/05/21 03:55:53;;;;;;;2.27;2.13;;;;;;;;;;5013335;28;20322;-86
2023/05/21 03:58:23;;;;;;;1.67;1.57;;;;;;;;;;5013196;28;20227;-86
2023/05/21 04:00:51;;;;;;;1.57;1.47;;;;;;;;;;5013246;28;20223;-85
2023/05/21 04:03:19;;;;;;;6.37;3.07;;;;;;;;;;5013072;28;20205;-85
2023/05/21 04:05:48;;;;;;;2.60;2.40;;;;;;;;;;5013287;28;20215;-85
2023/05/21 04:08:17;;;;;;;4.13;1.80;;;;;;;;;;5013211;28;20206;-86
2023/05/21 04:10:45;;;;;;;2.30;2.10;;;;;;;;;;5012823;28;20206;-86
2023/05/21 04:13:15;;;;;;;2.70;1.53;;;;;;;;;;5013867;28;20226;-86
2023/05/21 04:15:45;;;;;;;2.23;2.03;;;;;;;;;;5012812;28;20206;-85
2023/05/21 04:18:15;;;;;;;1.33;1.23;;;;;;;;;;5012819;28;20257;-86
2023/05/21 04:20:44;;;;;;;1.80;1.70;;;;;;;;;;5013214;28;20211;-85
2023/05/21 04:23:12;;;;;;;3.00;2.80;;;;;;;;;;5012957;28;20230;-86
2023/05/21 04:25:41;;;;;;;4.40;3.60;;;;;;;;;;5012453;28;20254;-86
2023/05/21 04:28:09;;;;;;;1.40;1.30;;;;;;;;;;5013033;28;20227;-85
2023/05/21 04:30:39;;;;;;;1.83;1.73;;;;;;;;;;5013035;28;20203;-86
2023/05/21 04:33:08;;;;;;;2.00;1.90;;;;;;;;;;5012912;28;20253;-86
2023/05/21 04:35:43;;;;;;;1.73;1.63;;;;;;;;;;5012484;28;20226;-86
2023/05/21 04:38:12;;;;;;;2.07;1.97;;;;;;;;;;5012580;28;20207;-85
2023/05/21 04:40:42;;;;;;;1.87;1.77;;;;;;;;;;5012214;28;20221;-85
2023/05/21 04:43:10;;;;;;;2.70;2.07;;;;;;;;;;5012153;28;20215;-85
2023/05/21 04:45:40;;;;;;;2.57;2.37;;;;;;;;;;5012550;28;20217;-85
2023/05/21 04:48:09;;;;;;;2.73;2.53;;;;;;;;;;5012773;28;20265;-85
2023/05/21 04:50:37;;;;;;;11.20;3.70;;;;;;;;;;5012415;28;20204;-85
2023/05/21 04:53:06;;;;;;;4.70;2.80;;;;;;;;;;5012520;28;20230;-85
2023/05/21 04:55:38;;;;;;;2.37;2.03;;;;;;;;;;5012413;28;20209;-85
2023/05/21 04:58:06;;;;;;;2.30;2.20;;;;;;;;;;5012328;28;20206;-85
2023/05/21 05:00:36;;;;;;;2.90;2.43;;;;;;;;;;5012322;28;20237;-85
2023/05/21 05:03:06;;;;;;;2.00;1.80;;;;;;;;;;5015962;28;20207;-85
2023/05/21 05:05:35;;;;;;;3.03;2.83;;;;;;;;;;5016012;28;20198;-85
2023/05/21 05:08:03;;;;;;;1.47;1.37;;;;;;;;;;5016692;28;20232;-85
2023/05/21 05:10:32;;;;;;;2.77;2.07;;;;;;;;;;5016419;28;20203;-85
2023/05/21 05:13:00;;;;;;;2.93;2.67;;;;;;;;;;5016371;28;20237;-85
2023/05/21 05:15:29;;;;;;;2.70;2.50;;;;;;;;;;5015882;28;20257;-85
2023/05/21 05:17:57;;;;;;;2.90;2.30;;;;;;;;;;5016778;28;20211;-85
2023/05/21 05:20:27;;;;;;;2.90;2.60;;;;;;;;;;5016560;28;20322;-85
2023/05/21 05:22:56;;;;;;;6.87;2.60;;;;;;;;;;5015613;28;20250;-85
2023/05/21 05:25:24;;;;;;;2.37;2.20;;;;;;;;;;5015889;28;20222;-86
2023/05/21 05:27:53;;;;;;;2.13;1.93;;;;;;;;;;5015997;28;20246;-86
2023/05/21 05:30:21;;;;;;;3.73;1.90;;;;;;;;;;5015848;28;20199;-85
2023/05/21 05:32:50;;;;;;;3.57;2.70;;;;;;;;;;5016226;28;20231;-85
2023/05/21 05:35:18;;;;;;;4.07;2.97;;;;;;;;;;5015547;28;20234;-86
2023/05/21 05:37:48;;;;;;;3.47;3.10;;;;;;;;;;5015497;28;20208;-86
2023/05/21 05:40:17;;;;;;;3.87;3.37;;;;;;;;;;5015996;28;20249;-86
2023/05/21 05:42:48;;;;;;;2.50;2.30;;;;;;;;;;5015222;28;20225;-85
2023/05/21 05:45:16;;;;;;;4.13;3.57;;;;;;;;;;5014977;28;20206;-85
2023/05/21 05:47:45;;;;;;;2.57;2.00;;;;;;;;;;5015417;28;20214;-85
2023/05/21 05:50:13;;;;;;;3.33;1.73;;;;;;;;;;5015422;28;20203;-86
2023/05/21 05:52:42;;;;;;;1.80;1.70;;;;;;;;;;5015900;28;20215;-86
2023/05/21 05:55:12;;;;;;;2.63;2.30;;;;;;;;;;5014952;28;20207;-85
2023/05/21 05:57:40;;;;;;;3.23;2.87;;;;;;;;;;5015553;28;20199;-85
2023/05/21 06:00:12;;;;;;;3.17;2.97;;;;;;;;;;5015821;28;20261;-85
2023/05/21 06:02:41;;;;;;;2.87;2.60;;;;;;;;;;5015289;28;20210;-85
2023/05/21 06:05:10;;;;;;;3.30;3.10;;;;;;;;;;5015439;28;20214;-85
2023/05/21 06:07:39;;;;;;;5.73;3.60;;;;;;;;;;5015484;28;20211;-85
2023/05/21 06:10:08;;;;;;;5.20;3.13;;;;;;;;;;5015311;28;20205;-85
2023/05/21 06:12:38;;;;;;;3.60;2.50;;;;;;;;;;5014931;28;20203;-85
2023/05/21 06:15:07;;;;;;;1.77;1.67;;;;;;;;;;5015192;28;20207;-85
2023/05/21 06:17:36;;;;;;;2.50;2.30;;;;;;;;;;5015478;28;20210;-86
2023/05/21 06:20:04;;;;;;;3.70;2.70;;;;;;;;;;5014475;28;20223;-85
2023/05/21 06:22:33;;;;;;;6.70;3.97;;;;;;;;;;5014623;28;20235;-85
2023/05/21 06:25:01;;;;;;;1.60;1.50;;;;;;;;;;5014843;28;20218;-85
2023/05/21 06:27:30;;;;;;;2.30;2.10;;;;;;;;;;5014393;28;20226;-85
2023/05/21 06:30:00;;;;;;;2.60;2.33;;;;;;;;;;5015073;28;20196;-85
2023/05/21 06:32:29;;;;;;;3.60;2.77;;;;;;;;;;5015228;28;20207;-86
2023/05/21 06:34:57;;;;;;;2.03;1.93;;;;;;;;;;5014542;28;20224;-85
2023/05/21 06:37:26;;;;;;;5.47;2.70;;;;;;;;;;5014416;28;20202;-85
2023/05/21 06:39:54;;;;;;;3.70;3.37;;;;;;;;;;5014799;28;20220;-85
2023/05/21 06:42:23;;;;;;;7.83;3.73;;;;;;;;;;5014908;28;20210;-86
2023/05/21 06:44:51;;;;;;;9.50;4.87;;;;;;;;;;5013927;28;20269;-86
2023/05/21 06:47:21;;;;;;;4.33;2.43;;;;;;;;;;5014656;28;20215;-86
2023/05/21 06:49:50;;;;;;;3.47;2.77;;;;;;;;;;5014547;28;20278;-86
2023/05/21 06:52:18;;;;;;;6.43;4.27;;;;;;;;;;5014184;28;20208;-86
2023/05/21 06:54:46;;;;;;;3.90;2.83;;;;;;;;;;5014723;28;20211;-86
2023/05/21 06:57:18;;;;;;;3.93;3.00;;;;;;;;;;5014557;28;20203;-86
2023/05/21 06:59:46;;;;;;;2.30;2.10;;;;;;;;;;5014030;28;20203;-86
2023/05/21 07:02:15;;;;;;;5.10;3.57;;;;;;;;;;5014263;28;20207;-86
2023/05/21 07:04:45;;;;;;;4.50;3.17;;;;;;;;;;5014389;28;20210;-86
2023/05/21 07:07:14;;;;;;;3.03;2.40;;;;;;;;;;5013865;28;20232;-86
2023/05/21 07:09:43;;;;;;;3.67;2.97;;;;;;;;;;5013990;28;20226;-86
2023/05/21 07:12:11;;;;;;;2.30;2.13;;;;;;;;;;5013960;28;20202;-86
2023/05/21 07:14:40;;;;;;;3.80;2.40;;;;;;;;;;5014106;28;20195;-86
2023/05/21 07:17:08;;;;;;;2.57;2.37;;;;;;;;;;5013770;28;20199;-86
2023/05/21 07:19:37;;;;;;;6.07;1.97;;;;;;;;;;5013984;28;20214;-86
2023/05/21 07:22:07;;;;;;;2.57;2.37;;;;;;;;;;5014056;28;20203;-86
2023/05/21 07:24:36;;;;;;;3.73;2.93;;;;;;;;;;5013364;28;20238;-86
2023/05/21 07:27:05;;;;;;;2.47;2.03;;;;;;;;;;5013227;28;20231;-86
2023/05/21 07:29:51;;;;;;;2.10;1.77;;;;;;;;;;5013768;28;20212;-86
2023/05/21 07:32:20;;;;;;;7.07;2.73;;;;;;;;;;5013513;28;20212;-86
2023/05/21 07:34:48;;;;;;;5.73;4.07;;;;;;;;;;5013782;28;20316;-85
2023/05/21 07:37:20;;;;;;;2.93;2.73;;;;;;;;;;5013345;28;20215;-85
2023/05/21 07:39:49;;;;;;;2.47;2.27;;;;;;;;;;5013562;28;20219;-85
2023/05/21 07:42:17;;;;;;;2.77;2.53;;;;;;;;;;5012916;28;20207;-85
2023/05/21 07:44:45;;;;;;;4.20;2.80;;;;;;;;;;5013851;28;20230;-85
2023/05/21 07:47:17;;;;;;;3.97;3.60;;;;;;;;;;5013572;28;20263;-85
2023/05/21 07:49:45;;;;;;;5.13;3.07;;;;;;;;;;5013358;28;20200;-85
2023/05/21 07:52:13;;;;;;;9.87;4.63;;;;;;;;;;5013227;28;20236;-85
2023/05/21 07:54:43;;;;;;;4.37;3.97;;;;;;;;;;5013987;28;20210;-85
2023/05/21 07:57:12;;;;;;;7.53;4.37;;;;;;;;;;5012812;28;20204;-85
2023/05/21 07:59:40;;;;;;;2.30;2.10;;;;;;;;;;5013053;28;20195;-85
2023/05/21 08:02:09;;;;;;;5.27;2.53;;;;;;;;;;5013090;28;20273;-85
2023/05/21 08:04:38;;;;;;;2.30;2.20;;;;;;;;;;5012923;28;20206;-85
2023/05/21 08:07:09;;;;;;;10.60;2.87;;;;;;;;;;5012648;28;20204;-85
2023/05/21 08:09:38;;;;;;;5.30;2.80;;;;;;;;;;5013327;28;20309;-85
2023/05/21 08:12:08;;;;;;;2.10;1.83;;;;;;;;;;5013132;28;20246;-85
2023/05/21 08:14:36;;;;;;;3.37;3.07;;;;;;;;;;5012903;28;20262;-85
2023/05/21 08:17:05;;;;;;;2.80;2.60;;;;;;;;;;5012845;28;20197;-85
2023/05/21 08:19:33;;;;;;;2.77;2.47;;;;;;;;;;5012946;28;20208;-85
2023/05/21 08:22:02;;;;;;;4.70;3.80;;;;;;;;;;5012698;28;20219;-85
2023/05/21 08:24:30;;;;;;;5.33;4.30;;;;;;;;;;5013255;28;20254;-85
2023/05/21 08:26:59;;;;;;;3.30;2.50;;;;;;;;;;5013023;28;20227;-85
2023/05/21 08:29:29;;;;;;;8.80;4.83;;;;;;;;;;5013160;28;20203;-85
2023/05/21 08:31:57;;;;;;;6.77;4.67;;;;;;;;;;5013071;28;20191;-86
2023/05/21 08:34:26;;;;;;;2.63;2.30;;;;;;;;;;5013006;28;20208;-86
2023/05/21 08:36:54;;;;;;;6.27;3.90;;;;;;;;;;5011964;28;20204;-86
2023/05/21 08:39:22;;;;;;;4.27;3.27;;;;;;;;;;5012734;28;20200;-86
2023/05/21 08:41:53;;;;;;;2.90;2.63;;;;;;;;;;5012456;28;20231;-86
2023/05/21 08:44:21;;;;;;;5.13;2.83;;;;;;;;;;5012308;28;20195;-86
2023/05/21 08:46:51;;;;;;;5.53;3.73;;;;;;;;;;5012601;28;20248;-86
2023/05/21 08:49:23;;;;;;;4.30;3.47;;;;;;;;;;5012266;28;20206;-86
2023/05/21 08:51:54;;;;;;;3.67;2.93;;;;;;;;;;5012508;28;20243;-86
2023/05/21 08:54:23;;;;;;;2.00;1.73;;;;;;;;;;5012514;28;20205;-86
2023/05/21 08:56:53;;;;;;;1.93;1.83;;;;;;;;;;5013185;28;20200;-86
2023/05/21 08:59:22;;;;;;;5.13;4.53;;;;;;;;;;5012877;28;20200;-86
2023/05/21 09:01:52;;;;;;;3.43;2.37;;;;;;;;;;5012225;28;20217;-87
2023/05/21 09:04:21;;;;;;;3.70;3.40;;;;;;;;;;5011677;28;20250;-86
2023/05/21 09:06:50;;;;;;;3.43;2.80;;;;;;;;;;5012289;28;20210;-86
2023/05/21 09:09:23;;;;;;;6.27;4.07;;;;;;;;;;5012427;28;20254;-86
2023/05/21 09:11:52;;;;;;;4.00;2.73;;;;;;;;;;5012531;28;20248;-85
2023/05/21 09:14:22;;;;;;;5.00;4.50;;;;;;;;;;5012228;28;20266;-85
2023/05/21 09:16:51;;;;;;;5.33;4.07;;;;;;;;;;5012671;28;20201;-86
2023/05/21 09:19:21;;;;;;;5.13;3.33;;;;;;;;;;5011856;28;20192;-86
2023/05/21 09:21:51;;;;;;;3.17;2.97;;;;;;;;;;5012048;28;20223;-86
2023/05/21 09:24:22;;;;;;;3.50;3.10;;;;;;;;;;5012490;28;20236;-86
2023/05/21 09:26:51;;;;;;;3.67;3.27;;;;;;;;;;5012036;28;20218;-86
2023/05/21 09:29:20;;;;;;;3.87;2.97;;;;;;;;;;5011920;28;20199;-86
2023/05/21 09:31:50;;;;;;;4.63;3.53;;;;;;;;;;5012307;28;20203;-86
2023/05/21 09:34:20;;;;;;;2.77;2.10;;;;;;;;;;5011690;28;20196;-86
2023/05/21 09:36:49;;;;;;;3.97;3.13;;;;;;;;;;5012652;28;20195;-86
2023/05/21 09:39:28;;;;;;;3.63;3.33;;;;;;;;;;5011903;28;20192;-86
2023/05/21 09:41:57;;;;;;;5.17;2.53;;;;;;;;;;5012442;28;20212;-86
2023/05/21 09:44:25;;;;;;;2.90;1.93;;;;;;;;;;5011911;28;20204;-86
2023/05/21 09:46:58;;;;;;;2.80;2.30;;;;;;;;;;5012637;28;20210;-86
2023/05/21 09:49:29;;;;;;;2.17;1.97;;;;;;;;;;5015718;28;20276;-86
2023/05/21 09:51:57;;;;;;;3.87;3.50;;;;;;;;;;5015470;28;20199;-86
2023/05/21 09:54:31;;;;;;;7.10;4.10;;;;;;;;;;5015819;28;20212;-85
2023/05/21 09:57:01;;;;;;;3.20;2.50;;;;;;;;;;5015856;28;20235;-86
2023/05/21 09:59:36;;;;;;;4.27;3.73;;;;;;;;;;5015874;28;20199;-86
2023/05/21 10:02:14;;;;;;;4.13;3.17;;;;;;;;;;5015032;28;20236;-86
2023/05/21 10:04:45;;;;;;;3.90;3.53;;;;;;;;;;5015406;28;20204;-86
2023/05/21 10:07:13;;;;;;;4.67;2.83;;;;;;;;;;5015714;28;20203;-86
2023/05/21 10:09:42;;;;;;;6.80;3.60;;;;;;;;;;5015204;28;20212;-86
2023/05/21 10:12:11;;;;;;;2.20;2.00;;;;;;;;;;5015359;28;20204;-86
2023/05/21 10:14:41;;;;;;;2.37;2.17;;;;;;;;;;5015585;28;20268;-86
2023/05/21 10:17:11;;;;;;;4.00;3.67;;;;;;;;;;5014527;28;20216;-86
2023/05/21 10:19:40;;;;;;;2.70;2.20;;;;;;;;;;5014546;28;20196;-86
2023/05/21 10:22:10;;;;;;;5.20;4.10;;;;;;;;;;5014837;28;20268;-86
2023/05/21 10:24:40;;;;;;;5.17;2.97;;;;;;;;;;5014688;28;20288;-86
2023/05/21 10:27:10;;;;;;;4.30;3.27;;;;;;;;;;5015224;28;20225;-86
2023/05/21 10:29:39;;;;;;;3.37;2.73;;;;;;;;;;5014654;28;20207;-86
2023/05/21 10:32:08;;;;;;;3.60;2.20;;;;;;;;;;5014222;28;20249;-86
2023/05/21 10:34:38;;;;;;;3.57;3.00;;;;;;;;;;5014628;28;20291;-86
2023/05/21 10:37:09;;;;;;;3.40;3.10;;;;;;;;;;5015513;28;20201;-86
2023/05/21 10:39:39;;;;;;;2.77;2.50;;;;;;;;;;5014692;28;20211;-86
2023/05/21 10:42:15;;;;;;;2.77;2.57;;;;;;;;;;5014741;28;20212;-86
2023/05/21 10:44:50;;;;;;;3.90;3.00;;;;;;;;;;5014840;28;20207;-86
2023/05/21 10:47:27;;;;;;;3.87;3.57;;;;;;;;;;5014479;28;20196;-85
2023/05/21 10:50:04;;;;;;;14.87;3.27;;;;;;;;;;5014293;28;20198;-85
2023/05/21 10:52:39;;;;;;;5.23;3.53;;;;;;;;;;5014601;28;20220;-86
2023/05/21 10:55:22;;;;;;;5.13;2.17;;;;;;;;;;5014255;28;20203;-86
2023/05/21 10:58:03;;;;;;;3.70;2.67;;;;;;;;;;5014412;28;20219;-86
2023/05/21 11:00:31;;;;;;;3.33;2.60;;;;;;;;;;5013450;28;20252;-86
2023/05/21 11:03:01;;;;;;;4.57;2.47;;;;;;;;;;5015173;28;20239;-86
2023/05/21 11:05:40;;;;;;;5.10;3.83;;;;;;;;;;5013951;28;20295;-86
2023/05/21 11:08:30;;;;;;;3.27;3.00;;;;;;;;;;5014093;28;20206;-86
2023/05/21 11:11:00;;;;;;;2.87;2.67;;;;;;;;;;5008280;28;20206;-86
2023/05/21 11:13:31;;;;;;;1.67;1.57;;;;;;;;;;5013698;28;20189;-86
2023/05/21 11:16:17;;;;;;;3.30;3.03;;;;;;;;;;5013944;28;20229;-86
2023/05/21 11:18:58;;;;;;;2.43;2.23;;;;;;;;;;5013775;28;20204;-87
2023/05/21 11:21:29;;;;;;;4.07;2.37;;;;;;;;;;5013564;28;20205;-86
2023/05/21 11:24:02;;;;;;;8.57;3.00;;;;;;;;;;5013508;28;20274;-87
2023/05/21 11:26:54;;;;;;;2.83;2.07;;;;;;;;;;5013573;28;20208;-86
2023/05/21 11:29:32;;;;;;;5.80;2.60;;;;;;;;;;5013123;28;20205;-86
2023/05/21 11:32:01;;;;;;;3.10;2.57;;;;;;;;;;5013793;28;20205;-86
2023/05/21 11:34:38;;;;;;;4.33;2.83;;;;;;;;;;5013639;28;20207;-86
2023/05/21 11:37:27;;;;;;;3.33;2.63;;;;;;;;;;5013708;28;20225;-86
2023/05/21 11:39:57;;;;;;;1.97;1.83;;;;;;;;;;5013830;28;20216;-86
2023/05/21 11:42:30;;;;;;;7.93;3.53;;;;;;;;;;5013410;28;20223;-86
2023/05/21 11:44:59;;;;;;;4.00;2.40;;;;;;;;;;5013925;28;20202;-86
2023/05/21 11:47:28;;;;;;;3.50;3.20;;;;;;;;;;5013268;28;20209;-86
2023/05/21 11:49:57;;;;;;;4.83;2.23;;;;;;;;;;5013633;28;20205;-86
2023/05/21 11:52:25;;;;;;;12.90;3.60;;;;;;;;;;5013268;28;20213;-85
2023/05/21 11:54:55;;;;;;;3.73;3.00;;;;;;;;;;5012814;28;20212;-85
2023/05/21 11:57:29;;;;;;;3.77;3.47;;;;;;;;;;5012699;28;20215;-85
2023/05/21 12:00:00;;;;;;;3.93;2.93;;;;;;;;;;5013502;28;20201;-85
2023/05/21 12:02:31;;;;;;;4.50;3.40;;;;;;;;;;5013028;28;20207;-85
2023/05/21 12:05:01;;;;;;;3.13;2.83;;;;;;;;;;5013333;28;20200;-85
2023/05/21 12:07:29;;;;;;;5.80;3.80;;;;;;;;;;5013198;28;20208;-85
2023/05/21 12:09:58;;;;;;;4.37;3.47;;;;;;;;;;5013183;28;20207;-85
2023/05/21 12:12:27;;;;;;;3.03;2.83;;;;;;;;;;5013169;28;20207;-85
2023/05/21 12:15:14;;;;;;;2.97;2.67;;;;;;;;;;5013353;28;20297;-85
2023/05/21 12:17:43;;;;;;;2.13;1.93;;;;;;;;;;5013628;28;20205;-85
2023/05/21 12:20:15;;;;;;;4.90;3.07;;;;;;;;;;5012903;28;20295;-85
2023/05/21 12:22:45;;;;;;;9.33;5.07;;;;;;;;;;5012622;28;20276;-85
2023/05/21 12:25:13;;;;;;;3.00;2.23;;;;;;;;;;5013146;28;20210;-85
2023/05/21 12:27:43;;;;;;;4.93;3.53;;;;;;;;;;5012651;28;20225;-85
2023/05/21 12:30:12;;;;;;;4.67;2.93;;;;;;;;;;5012748;28;20283;-85
2023/05/21 12:32:43;;;;;;;1.97;1.87;;;;;;;;;;5012700;28;20209;-85
2023/05/21 12:35:21;;;;;;;3.37;2.50;;;;;;;;;;5012072;28;20199;-85
2023/05/21 12:37:50;;;;;;;4.00;3.60;;;;;;;;;;5012889;28;20234;-85
2023/05/21 12:40:19;;;;;;;4.53;4.13;;;;;;;;;;5012854;28;20282;-85
2023/05/21 12:42:48;;;;;;;2.60;2.37;;;;;;;;;;5012482;28;20237;-85
2023/05/21 12:45:19;;;;;;;5.93;3.10;;;;;;;;;;5012876;28;20211;-85
2023/05/21 12:47:54;;;;;;;6.83;3.63;;;;;;;;;;5012477;28;20215;-85
2023/05/21 12:50:23;;;;;;;2.97;2.80;;;;;;;;;;5012438;28;20218;-85
2023/05/21 12:52:55;;;;;;;4.20;2.83;;;;;;;;;;5012562;28;20208;-85
2023/05/21 12:55:25;;;;;;;5.63;2.80;;;;;;;;;;5012771;28;20265;-85
2023/05/21 12:58:02;;;;;;;4.13;3.23;;;;;;;;;;5011992;28;20223;-85
2023/05/21 13:00:31;;;;;;;3.70;3.27;;;;;;;;;;5012486;28;20202;-84
2023/05/21 13:03:01;;;;;;;8.63;3.37;;;;;;;;;;5012531;28;20208;-85
2023/05/21 13:05:29;;;;;;;5.10;3.20;;;;;;;;;;5012108;28;20203;-85
2023/05/21 13:07:58;;;;;;;5.30;2.80;;;;;;;;;;5012159;28;20271;-85
2023/05/21 13:10:26;;;;;;;4.07;3.00;;;;;;;;;;5012648;28;20209;-85
2023/05/21 13:12:55;;;;;;;6.20;3.73;;;;;;;;;;5012926;28;20198;-85
2023/05/21 13:15:23;;;;;;;4.47;3.13;;;;;;;;;;5012163;28;20238;-85
2023/05/21 13:17:52;;;;;;;2.83;2.07;;;;;;;;;;5012034;28;20197;-85
2023/05/21 13:20:26;;;;;;;2.90;2.63;;;;;;;;;;5012400;28;20225;-85
2023/05/21 13:22:55;;;;;;;5.67;1.90;;;;;;;;;;5011834;28;20274;-85
2023/05/21 13:25:27;;;;;;;4.80;3.33;;;;;;;;;;5015470;28;20215;-85
2023/05/21 13:27:56;;;;;;;4.93;4.43;;;;;;;;;;5015824;28;20228;-86
2023/05/21 13:30:24;;;;;;;2.50;2.20;;;;;;;;;;5015991;28;20210;-85
2023/05/21 13:32:53;;;;;;;3.10;2.13;;;;;;;;;;5015808;28;20211;-85
2023/05/21 13:35:22;;;;;;;3.53;2.83;;;;;;;;;;5016235;28;20202;-85
2023/05/21 13:37:52;;;;;;;6.33;2.50;;;;;;;;;;5016155;28;20201;-85
2023/05/21 13:40:21;;;;;;;4.30;3.47;;;;;;;;;;5015843;28;20259;-85
2023/05/21 13:42:50;;;;;;;3.03;2.40;;;;;;;;;;5015995;28;20247;-85
2023/05/21 13:45:19;;;;;;;3.50;3.10;;;;;;;;;;5015772;28;20222;-85
2023/05/21 13:47:48;;;;;;;3.77;2.90;;;;;;;;;;5015600;28;20201;-85
2023/05/21 13:50:17;;;;;;;2.77;2.53;;;;;;;;;;5015903;28;20277;-85
2023/05/21 13:52:45;;;;;;;2.57;2.37;;;;;;;;;;5015705;28;20250;-85
2023/05/21 13:55:16;;;;;;;3.03;2.37;;;;;;;;;;5015754;28;20203;-85
2023/05/21 13:57:44;;;;;;;11.10;5.13;;;;;;;;;;5015529;28;20207;-86
2023/05/21 14:00:14;;;;;;;2.40;2.20;;;;;;;;;;5015419;28;20203;-86
2023/05/21 14:02:43;;;;;;;5.10;2.17;;;;;;;;;;5015814;28;20203;-86
2023/05/21 14:05:12;;;;;;;3.97;2.73;;;;;;;;;;5014833;28;20255;-86
2023/05/21 14:07:41;;;;;;;3.63;3.33;;;;;;;;;;5015335;28;20219;-86
2023/05/21 14:10:10;;;;;;;3.93;2.73;;;;;;;;;;5014942;28;20192;-86
2023/05/21 14:12:40;;;;;;;2.77;2.47;;;;;;;;;;5015044;28;20233;-86
2023/05/21 14:15:09;;;;;;;5.50;2.63;;;;;;;;;;5015635;28;20271;-86
2023/05/21 14:17:39;;;;;;;4.87;2.93;;;;;;;;;;5015061;28;20207;-86
2023/05/21 14:20:08;;;;;;;4.03;2.77;;;;;;;;;;5014903;28;20204;-86
2023/05/21 14:22:37;;;;;;;2.73;2.20;;;;;;;;;;5014701;28;20200;-86
2023/05/21 14:25:06;;;;;;;1.27;1.23;;;;;;;;;;5015149;28;20219;-86
2023/05/21 14:27:36;;;;;;;4.40;3.30;;;;;;;;;;5014992;28;20234;-85
2023/05/21 14:30:07;;;;;;;2.00;1.80;;;;;;;;;;5014567;28;20209;-85
2023/05/21 14:32:35;;;;;;;2.63;2.33;;;;;;;;;;5015131;28;20229;-85
2023/05/21 14:35:04;;;;;;;4.77;1.87;;;;;;;;;;5013397;28;20195;-85
2023/05/21 14:37:33;;;;;;;3.20;2.90;;;;;;;;;;5014829;28;20206;-85
2023/05/21 14:40:01;;;;;;;5.87;2.43;;;;;;;;;;5014787;28;20211;-85
2023/05/21 14:42:30;;;;;;;3.77;3.40;;;;;;;;;;5014832;28;20200;-85
2023/05/21 14:44:59;;;;;;;3.07;2.63;;;;;;;;;;5014349;28;20232;-85
2023/05/21 14:47:47;;;;;;;2.80;2.43;;;;;;;;;;5014767;28;20201;-85
2023/05/21 14:50:16;;;;;;;3.60;2.80;;;;;;;;;;5014415;28;20302;-85
2023/05/21 14:52:45;;;;;;;6.07;3.73;;;;;;;;;;5014189;28;20245;-85
2023/05/21 14:55:15;;;;;;;4.93;3.43;;;;;;;;;;5014130;28;20242;-85
2023/05/21 14:57:44;;;;;;;8.27;2.97;;;;;;;;;;5014863;28;20201;-85
2023/05/21 15:00:13;;;;;;;2.47;2.07;;;;;;;;;;5014137;28;20204;-85